PST,Max TemperatureF,Mean TemperatureF,Min TemperatureF,Max Dew PointF,MeanDew PointF,Min DewpointF,Max Humidity, Mean Humidity, Min Humidity, Max Sea Level PressureIn, Mean Sea Level PressureIn, Min Sea Level PressureIn, Max VisibilityMiles, Mean VisibilityMiles, Min VisibilityMiles, Max Wind SpeedMPH, Mean Wind SpeedMPH, Max Gust SpeedMPH,PrecipitationIn, CloudCover, Events, WindDirDegrees
2013-2-1,53,40,26,41,29,25,100,84,41,30.36,30.31,30.24,10,10,4,5,1,,0.00,2,,275
2013-2-2,55,40,26,39,30,27,100,85,41,30.39,30.34,30.28,10,9,2,5,1,,0.00,0,,283
2013-2-3,55,40,26,37,31,27,100,85,41,30.35,30.29,30.21,10,8,0,5,1,,0.00,2,,275
2013-2-4,55,42,28,41,32,28,100,82,41,30.26,30.18,30.10,10,10,5,5,1,,0.00,1,,278
2013-2-5,53,42,28,37,32,28,100,83,47,30.20,30.10,30.02,10,10,0,12,2,20,0.02,2,,291
2013-2-6,50,38,26,32,29,25,100,79,46,30.24,30.16,30.07,10,10,3,6,2,,0.00,2,,277
2013-2-7,41,36,32,34,32,28,100,86,65,30.10,30.03,29.98,10,8,2,9,2,,0.25,7,,297
2013-2-8,46,38,30,32,26,19,100,67,34,30.10,30.05,30.00,10,10,3,16,4,29,0.01,2,,360
2013-2-9,53,40,28,30,24,18,80,57,33,30.18,30.11,30.07,10,10,10,13,6,22,0.00,0,,334
2013-2-10,55,40,26,36,27,23,100,69,29,30.23,30.17,30.12,10,10,5,14,4,26,0.00,1,,282
2013-2-11,59,42,26,36,27,16,93,72,19,30.32,30.25,30.20,10,10,5,8,2,,0.00,1,,289
2013-2-12,59,44,28,36,29,25,93,68,27,30.44,30.38,30.32,10,10,5,7,2,,0.00,0,,238
2013-2-13,59,42,26,39,31,27,100,74,39,30.46,30.40,30.31,10,10,5,6,2,,0.00,0,,277
2013-2-14,64,47,30,37,32,28,100,72,26,30.45,30.41,30.35,10,10,4,10,3,,0.00,0,,288
2013-2-15,62,45,28,36,30,28,100,76,27,30.43,30.38,30.30,10,10,5,5,1,,0.00,0,,271
2013-2-16,60,44,28,39,32,27,100,78,36,30.38,30.25,30.12,10,9,0,6,2,,0.00,1,,275
2013-2-17,59,44,28,32,26,16,100,66,20,30.16,30.10,30.01,10,10,7,9,3,,0.00,0,,218
2013-2-18,51,38,26,32,27,25,93,70,38,30.07,29.96,29.87,10,10,7,10,2,,0.00,2,,257
2013-2-19,37,34,30,32,31,27,100,91,75,29.90,29.76,29.67,10,8,0,8,3,,0.22,5,,284
2013-2-20,50,38,26,32,27,18,100,75,28,30.08,30.03,29.91,10,10,8,9,4,,0.00,2,,254
2013-2-21,51,40,28,32,27,21,100,67,30,30.24,30.17,30.08,10,10,7,10,4,,0.00,3,,231
2013-2-22,55,42,28,39,32,27,93,77,41,30.30,30.21,30.11,10,10,7,10,3,25,0.00,4,,276
2013-2-23,46,39,30,36,20,16,87,47,29,30.37,30.26,30.12,10,10,8,16,7,26,0.00,1,,356
2013-2-24,55,40,26,32,25,19,87,66,30,30.39,30.31,30.23,10,10,7,6,2,,0.00,0,,269
2013-2-25,55,42,28,34,23,7,100,63,14,30.33,30.27,30.22,10,10,8,15,4,23,0.00,0,,287
2013-2-26,55,40,26,32,24,16,86,64,25,30.36,30.31,30.23,10,10,4,7,2,,0.00,0,,262
2013-2-27,55,40,26,37,29,25,93,69,38,30.41,30.36,30.31,10,10,9,5,2,,0.00,3,,286
2013-2-28,55,46,35,45,39,36,100,78,58,30.56,30.48,30.41,10,9,2,6,1,,0.00,4,,263